Time;durP1;ratioP1;P1;durP2;ratioP2;P2;SDS_P1;SDS_P2;PMS_P1;PMS_P2;Temp;Humidity;BMP_temperature;BMP_pressure;BME280_temperature;BME280_humidity;BME280_pressure;Samples;Min_cycle;Max_cycle;Signal;HPM_P1;HPM_P2
2021/06/21 00:01:19;0.00;0.00;0.62;0.00;0.00;0.62;;;;;26.70;61.20;;;;;;2255879;61;1006;-69
2021/06/21 00:03:45;318826.00;1.06;550.28;133059.00;0.44;230.60;;;;;26.70;61.20;;;;;;2255658;61;925;-67
2021/06/21 00:06:10;0.00;0.00;0.62;0.00;0.00;0.62;;;;;26.70;61.20;;;;;;2255748;61;1004;-68
2021/06/21 00:08:36;0.00;0.00;0.62;0.00;0.00;0.62;;;;;26.70;61.20;;;;;;2255657;61;1955;-73
2021/06/21 00:11:02;0.00;0.00;0.62;0.00;0.00;0.62;;;;;26.70;61.20;;;;;;2255781;61;1168;-70
2021/06/21 00:13:27;0.00;0.00;0.62;0.00;0.00;0.62;;;;;26.70;61.20;;;;;;2255716;61;1055;-70
2021/06/21 00:15:53;0.00;0.00;0.62;0.00;0.00;0.62;;;;;26.70;61.20;;;;;;2255674;61;922;-71
2021/06/21 00:18:19;0.00;0.00;0.62;0.00;0.00;0.62;;;;;26.70;61.20;;;;;;2255582;61;1007;-69
2021/06/21 00:20:46;0.00;0.00;0.62;0.00;0.00;0.62;;;;;26.70;61.20;;;;;;2255607;61;936;-69
2021/06/21 00:23:12;0.00;0.00;0.62;0.00;0.00;0.62;;;;;26.70;61.20;;;;;;2255779;61;949;-69
2021/06/21 00:25:38;0.00;0.00;0.62;0.00;0.00;0.62;;;;;26.70;61.20;;;;;;2255588;61;1022;-71
2021/06/21 00:28:03;20893.00;0.07;36.82;0.00;0.00;0.62;;;;;26.70;61.20;;;;;;2255442;61;1947;-73
2021/06/21 00:30:29;0.00;0.00;0.62;0.00;0.00;0.62;;;;;26.70;61.20;;;;;;2255731;61;924;-76
2021/06/21 00:32:55;82768.00;0.28;143.82;0.00;0.00;0.62;;;;;26.70;61.20;;;;;;2255612;61;915;-68
2021/06/21 00:35:21;0.00;0.00;0.62;0.00;0.00;0.62;;;;;26.70;61.20;;;;;;2255810;61;974;-76
2021/06/21 00:37:47;0.00;0.00;0.62;0.00;0.00;0.62;;;;;26.70;61.20;;;;;;2255867;61;903;-76
2021/06/21 00:40:13;0.00;0.00;0.62;0.00;0.00;0.62;;;;;26.70;61.20;;;;;;2255422;61;963;-69
2021/06/21 00:42:41;0.00;0.00;0.62;0.00;0.00;0.62;;;;;26.70;61.20;;;;;;2251730;61;962;-71
2021/06/21 00:45:07;0.00;0.00;0.62;0.00;0.00;0.62;;;;;26.70;61.20;;;;;;2255552;61;982;-73
2021/06/21 00:47:32;64400.00;0.21;112.08;0.00;0.00;0.62;;;;;26.70;61.20;;;;;;2255677;61;1997;-71
2021/06/21 00:49:58;0.00;0.00;0.62;0.00;0.00;0.62;;;;;26.70;61.20;;;;;;2255566;61;864;-68
2021/06/21 00:52:24;11095.00;0.04;19.85;0.00;0.00;0.62;;;;;26.70;61.20;;;;;;2255907;61;907;-68
2021/06/21 00:54:59;111901.00;0.37;194.11;0.00;0.00;0.62;;;;;26.70;61.20;;;;;;2255408;61;981;-71
2021/06/21 00:57:27;0.00;0.00;0.62;0.00;0.00;0.62;;;;;26.70;61.20;;;;;;2255377;61;1033;-69
2021/06/21 00:59:54;0.00;0.00;0.62;0.00;0.00;0.62;;;;;26.70;61.40;;;;;;2251907;61;923;-68
2021/06/21 01:02:21;0.00;0.00;0.62;0.00;0.00;0.62;;;;;26.70;61.20;;;;;;2248544;61;957;-71
2021/06/21 01:04:47;0.00;0.00;0.62;0.00;0.00;0.62;;;;;26.70;61.20;;;;;;2251531;61;940;-70
2021/06/21 01:07:12;0.00;0.00;0.62;0.00;0.00;0.62;;;;;26.70;61.20;;;;;;2254966;61;1943;-76
2021/06/21 01:09:38;0.00;0.00;0.62;0.00;0.00;0.62;;;;;26.70;61.20;;;;;;2255255;61;983;-68
2021/06/21 01:12:33;0.00;0.00;0.62;0.00;0.00;0.62;;;;;26.70;61.40;;;;;;2251774;61;836;-71
2021/06/21 01:15:08;0.00;0.00;0.62;0.00;0.00;0.62;;;;;26.70;61.40;;;;;;2254996;61;884;-69
2021/06/21 01:17:57;0.00;0.00;0.62;0.00;0.00;0.62;;;;;26.70;61.40;;;;;;2252033;61;1479;-70
2021/06/21 01:20:49;0.00;0.00;0.62;0.00;0.00;0.62;;;;;26.70;61.40;;;;;;2255463;61;992;-68
2021/06/21 01:23:46;0.00;0.00;0.62;0.00;0.00;0.62;;;;;26.70;61.40;;;;;;2251457;61;1038;-68
2021/06/21 01:26:16;0.00;0.00;0.62;0.00;0.00;0.62;;;;;26.70;61.40;;;;;;2255664;61;955;-71
2021/06/21 01:29:11;10081.00;0.03;18.09;0.00;0.00;0.62;;;;;26.70;61.40;;;;;;2251873;61;2025;-68
2021/06/21 01:32:16;0.00;0.00;0.62;0.00;0.00;0.62;;;;;26.70;61.40;;;;;;2255578;61;922;-68
2021/06/21 01:34:46;0.00;0.00;0.62;0.00;0.00;0.62;;;;;26.70;61.40;;;;;;2253096;61;1734;-74
2021/06/21 01:37:12;0.00;0.00;0.62;0.00;0.00;0.62;;;;;26.70;61.20;;;;;;2248584;61;1042;-68
2021/06/21 01:39:38;202255.00;0.67;349.81;0.00;0.00;0.62;;;;;26.70;61.40;;;;;;2248295;61;1023;-68
2021/06/21 01:42:11;0.00;0.00;0.62;0.00;0.00;0.62;;;;;26.70;61.40;;;;;;2251592;61;1018;-73
2021/06/21 01:44:47;22801.00;0.08;40.12;0.00;0.00;0.62;;;;;26.70;61.40;;;;;;2255639;61;749;-71
2021/06/21 01:47:13;0.00;0.00;0.62;0.00;0.00;0.62;;;;;26.60;61.40;;;;;;2248517;61;2005;-70
2021/06/21 01:49:40;0.00;0.00;0.62;0.00;0.00;0.62;;;;;26.60;61.40;;;;;;2248484;61;915;-71
2021/06/21 01:52:09;0.00;0.00;0.62;0.00;0.00;0.62;;;;;26.70;61.40;;;;;;2248285;61;859;-72
2021/06/21 01:54:34;0.00;0.00;0.62;0.00;0.00;0.62;;;;;26.70;61.40;;;;;;2255496;61;945;-74
2021/06/21 01:57:02;6969.00;0.02;12.70;0.00;0.00;0.62;;;;;26.70;61.40;;;;;;2251595;61;1772;-70
2021/06/21 01:59:28;0.00;0.00;0.62;0.00;0.00;0.62;;;;;26.70;61.20;;;;;;2255485;61;996;-70
2021/06/21 02:01:55;122316.00;0.41;212.08;0.00;0.00;0.62;;;;;26.70;61.40;;;;;;2248342;61;939;-74
2021/06/21 02:04:20;0.00;0.00;0.62;0.00;0.00;0.62;;;;;26.60;61.40;;;;;;2248658;61;1037;-74
2021/06/21 02:06:46;0.00;0.00;0.62;0.00;0.00;0.62;;;;;26.60;61.40;;;;;;2250834;61;1028;-69
2021/06/21 02:09:12;0.00;0.00;0.62;0.00;0.00;0.62;;;;;26.70;61.20;;;;;;2251544;61;2116;-68
2021/06/21 02:11:37;0.00;0.00;0.62;0.00;0.00;0.62;;;;;26.70;61.20;;;;;;2248150;61;1010;-73
2021/06/21 02:14:03;0.00;0.00;0.62;0.00;0.00;0.62;;;;;26.70;61.20;;;;;;2248208;61;988;-68
2021/06/21 02:16:29;0.00;0.00;0.62;0.00;0.00;0.62;;;;;26.60;61.20;;;;;;2255323;61;910;-70
2021/06/21 02:18:55;0.00;0.00;0.62;0.00;0.00;0.62;;;;;26.60;61.40;;;;;;2247974;61;1015;-68
2021/06/21 02:21:20;0.00;0.00;0.62;0.00;0.00;0.62;;;;;26.60;61.40;;;;;;2251407;61;1261;-73
2021/06/21 02:23:47;187611.00;0.63;324.60;13858.00;0.05;24.63;;;;;26.60;61.20;;;;;;2255527;61;1009;-73
2021/06/21 02:26:12;0.00;0.00;0.62;0.00;0.00;0.62;;;;;26.60;61.40;;;;;;2251529;61;932;-69
2021/06/21 02:28:39;0.00;0.00;0.62;0.00;0.00;0.62;;;;;26.60;61.40;;;;;;2248312;61;2020;-71
2021/06/21 02:31:05;0.00;0.00;0.62;0.00;0.00;0.62;;;;;26.60;61.40;;;;;;2248173;61;1787;-68
2021/06/21 02:33:31;7944.00;0.03;14.39;0.00;0.00;0.62;;;;;26.60;61.40;;;;;;2247963;61;998;-69
2021/06/21 02:35:56;0.00;0.00;0.62;0.00;0.00;0.62;;;;;26.60;61.20;;;;;;2255364;61;951;-70
2021/06/21 02:38:22;0.00;0.00;0.62;0.00;0.00;0.62;;;;;26.60;61.40;;;;;;2251450;61;1029;-68
2021/06/21 02:40:48;0.00;0.00;0.62;0.00;0.00;0.62;;;;;26.60;61.40;;;;;;2251787;61;1139;-73
2021/06/21 02:43:14;0.00;0.00;0.62;0.00;0.00;0.62;;;;;26.60;61.20;;;;;;2255191;61;934;-71
2021/06/21 02:45:39;0.00;0.00;0.62;0.00;0.00;0.62;;;;;26.70;61.40;;;;;;2251577;61;959;-72
2021/06/21 02:48:06;0.00;0.00;0.62;0.00;0.00;0.62;;;;;26.60;61.20;;;;;;2255048;61;2020;-68
2021/06/21 02:50:31;0.00;0.00;0.62;0.00;0.00;0.62;;;;;26.60;61.20;;;;;;2251683;61;1302;-69
2021/06/21 02:53:06;301325.00;1.00;520.20;159077.00;0.53;275.45;;;;;26.60;61.20;;;;;;2248102;61;1032;-68
2021/06/21 02:55:34;0.00;0.00;0.62;0.00;0.00;0.62;;;;;26.60;61.20;;;;;;2255328;61;829;-70
2021/06/21 02:58:14;53968.00;0.18;94.05;0.00;0.00;0.62;;;;;26.60;61.20;;;;;;2251172;61;1125;-74
2021/06/21 03:00:40;0.00;0.00;0.62;0.00;0.00;0.62;;;;;26.60;61.20;;;;;;2255382;61;880;-68
2021/06/21 03:03:07;0.00;0.00;0.62;0.00;0.00;0.62;;;;;26.60;61.20;;;;;;2255326;61;1023;-71
2021/06/21 03:05:33;30665.00;0.10;53.73;0.00;0.00;0.62;;;;;26.60;61.40;;;;;;2251588;61;923;-69
2021/06/21 03:07:58;0.00;0.00;0.62;0.00;0.00;0.62;;;;;26.60;61.20;;;;;;2248078;61;2014;-71
2021/06/21 03:10:24;0.00;0.00;0.62;0.00;0.00;0.62;;;;;26.60;61.20;;;;;;2251447;61;958;-73
2021/06/21 03:12:50;17279.00;0.06;30.56;0.00;0.00;0.62;;;;;26.60;61.20;;;;;;2251210;61;934;-70
2021/06/21 03:15:19;0.00;0.00;0.62;0.00;0.00;0.62;;;;;26.60;61.20;;;;;;2247944;61;974;-73
2021/06/21 03:17:44;0.00;0.00;0.62;0.00;0.00;0.62;;;;;26.60;61.40;;;;;;2251261;61;975;-67
2021/06/21 03:20:12;64480.00;0.21;112.22;0.00;0.00;0.62;;;;;26.60;61.20;;;;;;2248066;61;944;-68
2021/06/21 03:22:39;0.00;0.00;0.62;0.00;0.00;0.62;;;;;26.60;61.20;;;;;;2247963;61;1420;-74
2021/06/21 03:25:05;0.00;0.00;0.62;0.00;0.00;0.62;;;;;26.60;61.20;;;;;;2255239;61;1003;-70
2021/06/21 03:27:32;15709.00;0.05;27.84;0.00;0.00;0.62;;;;;26.60;61.20;;;;;;2254927;61;2026;-69
2021/06/21 03:29:58;0.00;0.00;0.62;0.00;0.00;0.62;;;;;26.60;61.20;;;;;;2254958;61;1012;-74
2021/06/21 03:32:31;0.00;0.00;0.62;0.00;0.00;0.62;;;;;26.60;61.20;;;;;;2255148;61;891;-69
2021/06/21 03:34:58;0.00;0.00;0.62;0.00;0.00;0.62;;;;;26.60;61.20;;;;;;2255184;61;895;-68
2021/06/21 03:37:24;0.00;0.00;0.62;0.00;0.00;0.62;;;;;26.60;61.20;;;;;;2255203;61;923;-70
2021/06/21 03:39:49;20691.00;0.07;36.47;0.00;0.00;0.62;;;;;26.60;61.20;;;;;;2247834;61;965;-67
2021/06/21 03:42:15;0.00;0.00;0.62;0.00;0.00;0.62;;;;;26.60;61.20;;;;;;2254900;61;995;-72
2021/06/21 03:44:41;0.00;0.00;0.62;0.00;0.00;0.62;;;;;26.60;61.20;;;;;;2254796;61;993;-69
2021/06/21 03:47:08;0.00;0.00;0.62;0.00;0.00;0.62;;;;;26.60;61.20;;;;;;2254947;61;2009;-68
2021/06/21 03:49:34;23374.00;0.08;41.11;0.00;0.00;0.62;;;;;26.60;61.20;;;;;;2255290;61;989;-71
2021/06/21 03:51:59;0.00;0.00;0.62;0.00;0.00;0.62;;;;;26.60;61.20;;;;;;2255054;61;840;-67
2021/06/21 03:54:25;0.00;0.00;0.62;0.00;0.00;0.62;;;;;26.60;61.20;;;;;;2255094;61;1065;-69
2021/06/21 03:56:51;0.00;0.00;0.62;0.00;0.00;0.62;;;;;26.60;61.20;;;;;;2255211;61;886;-70
2021/06/21 03:59:19;118263.00;0.39;205.09;0.00;0.00;0.62;;;;;26.60;61.20;;;;;;2255175;61;924;-68
2021/06/21 04:01:45;0.00;0.00;0.62;0.00;0.00;0.62;;;;;26.60;61.20;;;;;;2254989;61;1032;-67
2021/06/21 04:04:10;0.00;0.00;0.62;0.00;0.00;0.62;;;;;26.60;61.20;;;;;;2255003;61;880;-70
2021/06/21 04:06:36;0.00;0.00;0.62;0.00;0.00;0.62;;;;;26.60;61.20;;;;;;2254984;61;906;-70
2021/06/21 04:09:02;0.00;0.00;0.62;0.00;0.00;0.62;;;;;26.60;61.20;;;;;;2254951;61;1954;-72
2021/06/21 04:11:28;0.00;0.00;0.62;0.00;0.00;0.62;;;;;26.60;61.20;;;;;;2254782;61;971;-69
2021/06/21 04:13:54;37594.00;0.13;65.73;0.00;0.00;0.62;;;;;26.60;61.20;;;;;;2251156;61;944;-68
2021/06/21 04:16:19;0.00;0.00;0.62;0.00;0.00;0.62;;;;;26.60;61.20;;;;;;2254915;61;879;-70
2021/06/21 04:18:45;90614.00;0.30;157.37;0.00;0.00;0.62;;;;;26.60;61.20;;;;;;2254915;61;1343;-67
2021/06/21 04:21:11;0.00;0.00;0.62;0.00;0.00;0.62;;;;;26.60;61.20;;;;;;2255075;61;948;-67
2021/06/21 04:23:36;0.00;0.00;0.62;0.00;0.00;0.62;;;;;26.60;61.10;;;;;;2254747;61;918;-72
2021/06/21 04:26:02;24817.00;0.08;43.61;0.00;0.00;0.62;;;;;26.60;61.20;;;;;;2254999;61;958;-71
2021/06/21 04:28:27;0.00;0.00;0.62;0.00;0.00;0.62;;;;;26.60;61.10;;;;;;2254850;61;2020;-68
2021/06/21 04:30:53;0.00;0.00;0.62;0.00;0.00;0.62;;;;;26.60;61.20;;;;;;2254897;61;942;-70
2021/06/21 04:33:18;44630.00;0.15;77.90;0.00;0.00;0.62;;;;;26.60;61.10;;;;;;2254850;61;875;-72
2021/06/21 04:35:44;0.00;0.00;0.62;0.00;0.00;0.62;;;;;26.60;61.10;;;;;;2254855;61;923;-69
2021/06/21 04:38:09;0.00;0.00;0.62;0.00;0.00;0.62;;;;;26.60;61.20;;;;;;2254838;61;929;-67
2021/06/21 04:40:35;0.00;0.00;0.62;0.00;0.00;0.62;;;;;26.60;61.10;;;;;;2254637;61;1065;-70
2021/06/21 04:43:01;0.00;0.00;0.62;0.00;0.00;0.62;;;;;26.60;61.20;;;;;;2255510;61;936;-70
2021/06/21 04:45:27;0.00;0.00;0.62;0.00;0.00;0.62;;;;;26.60;61.20;;;;;;2255667;61;983;-67
2021/06/21 04:47:53;0.00;0.00;0.62;0.00;0.00;0.62;;;;;26.60;61.10;;;;;;2255568;61;1943;-69
2021/06/21 04:50:19;19165.00;0.06;33.82;0.00;0.00;0.62;;;;;26.60;61.10;;;;;;2248561;61;838;-70
2021/06/21 04:52:45;0.00;0.00;0.62;0.00;0.00;0.62;;;;;26.60;61.10;;;;;;2255635;61;841;-69
2021/06/21 04:55:12;0.00;0.00;0.62;0.00;0.00;0.62;;;;;26.60;61.10;;;;;;2255469;61;964;-70
2021/06/21 04:57:37;0.00;0.00;0.62;0.00;0.00;0.62;;;;;26.60;61.10;;;;;;2255590;61;823;-67
2021/06/21 05:00:06;0.00;0.00;0.62;0.00;0.00;0.62;;;;;26.60;61.10;;;;;;2255753;61;927;-70
2021/06/21 05:02:31;19112.00;0.06;33.73;0.00;0.00;0.62;;;;;26.60;61.10;;;;;;2255603;61;902;-75
2021/06/21 05:04:57;0.00;0.00;0.62;0.00;0.00;0.62;;;;;26.60;61.10;;;;;;2255564;61;901;-67
2021/06/21 05:07:22;49149.00;0.16;85.71;0.00;0.00;0.62;;;;;26.60;61.10;;;;;;2255678;61;2012;-73
2021/06/21 05:09:48;46051.00;0.15;80.36;0.00;0.00;0.62;;;;;26.60;61.10;;;;;;2251755;61;1034;-70
2021/06/21 05:12:14;0.00;0.00;0.62;0.00;0.00;0.62;;;;;26.60;61.10;;;;;;2248646;61;927;-67
2021/06/21 05:14:39;0.00;0.00;0.62;0.00;0.00;0.62;;;;;26.60;61.10;;;;;;2255371;61;904;-68
2021/06/21 05:17:08;0.00;0.00;0.62;0.00;0.00;0.62;;;;;26.60;61.10;;;;;;2255426;61;1042;-71
2021/06/21 05:19:34;0.00;0.00;0.62;0.00;0.00;0.62;;;;;26.60;61.00;;;;;;2251960;61;894;-69
2021/06/21 05:22:01;0.00;0.00;0.62;0.00;0.00;0.62;;;;;26.60;61.10;;;;;;2251635;61;1050;-67
2021/06/21 05:24:26;0.00;0.00;0.62;0.00;0.00;0.62;;;;;26.60;61.10;;;;;;2255519;61;1213;-72
2021/06/21 05:26:52;15364.00;0.05;27.24;0.00;0.00;0.62;;;;;26.60;61.00;;;;;;2255401;61;1176;-68
2021/06/21 05:29:18;0.00;0.00;0.62;0.00;0.00;0.62;;;;;26.60;61.10;;;;;;2254895;61;2048;-68
2021/06/21 05:31:44;0.00;0.00;0.62;0.00;0.00;0.62;;;;;26.60;61.10;;;;;;2255606;61;1156;-71
2021/06/21 05:34:09;0.00;0.00;0.62;0.00;0.00;0.62;;;;;26.60;61.10;;;;;;2255305;61;1046;-69
2021/06/21 05:36:35;0.00;0.00;0.62;0.00;0.00;0.62;;;;;26.60;61.10;;;;;;2255602;61;1160;-68
2021/06/21 05:39:00;19536.00;0.07;34.47;0.00;0.00;0.62;;;;;26.60;61.10;;;;;;2255203;61;1164;-68
2021/06/21 05:41:26;0.00;0.00;0.62;0.00;0.00;0.62;;;;;26.60;61.10;;;;;;2255499;61;1185;-75
2021/06/21 05:43:51;0.00;0.00;0.62;0.00;0.00;0.62;;;;;26.60;61.10;;;;;;2251497;61;1030;-67
2021/06/21 05:46:17;0.00;0.00;0.62;0.00;0.00;0.62;;;;;26.60;61.10;;;;;;2255488;61;1214;-70
2021/06/21 05:48:43;0.00;0.00;0.62;0.00;0.00;0.62;;;;;26.60;61.00;;;;;;2255291;61;2009;-67
2021/06/21 05:51:08;0.00;0.00;0.62;0.00;0.00;0.62;;;;;26.60;61.00;;;;;;2255451;61;894;-69
2021/06/21 05:53:34;0.00;0.00;0.62;0.00;0.00;0.62;;;;;26.60;61.10;;;;;;2255379;61;1237;-70
2021/06/21 05:56:00;163521.00;0.55;283.11;88425.00;0.29;153.59;;;;;26.60;61.10;;;;;;2255311;61;1246;-70
2021/06/21 05:58:26;26174.00;0.09;45.96;0.00;0.00;0.62;;;;;26.60;61.00;;;;;;2255283;61;1274;-70
2021/06/21 06:00:51;0.00;0.00;0.62;0.00;0.00;0.62;;;;;26.60;61.10;;;;;;2255418;61;1084;-72
2021/06/21 06:03:17;0.00;0.00;0.62;0.00;0.00;0.62;;;;;26.60;61.00;;;;;;2255400;61;825;-71
2021/06/21 06:05:42;0.00;0.00;0.62;0.00;0.00;0.62;;;;;26.60;61.00;;;;;;2255464;61;945;-69
2021/06/21 06:08:08;0.00;0.00;0.62;0.00;0.00;0.62;;;;;26.60;61.00;;;;;;2255477;61;2006;-67
2021/06/21 06:10:34;0.00;0.00;0.62;0.00;0.00;0.62;;;;;26.60;61.00;;;;;;2255334;61;975;-71
2021/06/21 06:12:59;0.00;0.00;0.62;0.00;0.00;0.62;;;;;26.60;61.00;;;;;;2255364;61;981;-72
2021/06/21 06:15:25;84352.00;0.28;146.55;0.00;0.00;0.62;;;;;26.60;61.00;;;;;;2255164;61;1030;-70
2021/06/21 06:17:51;0.00;0.00;0.62;0.00;0.00;0.62;;;;;26.60;61.00;;;;;;2255301;61;964;-68
2021/06/21 06:20:17;0.00;0.00;0.62;0.00;0.00;0.62;;;;;26.70;61.00;;;;;;2255473;61;1006;-69
2021/06/21 06:22:42;0.00;0.00;0.62;0.00;0.00;0.62;;;;;26.60;61.00;;;;;;2255594;61;839;-69
2021/06/21 06:25:09;0.00;0.00;0.62;0.00;0.00;0.62;;;;;26.60;61.00;;;;;;2251750;61;917;-69
2021/06/21 06:27:35;0.00;0.00;0.62;0.00;0.00;0.62;;;;;26.70;61.00;;;;;;2255409;61;2041;-69
2021/06/21 06:30:00;39906.00;0.13;69.73;0.00;0.00;0.62;;;;;26.70;61.00;;;;;;2255224;61;939;-68
2021/06/21 06:32:26;0.00;0.00;0.62;0.00;0.00;0.62;;;;;26.70;61.00;;;;;;2255230;61;904;-67
2021/06/21 06:34:51;23295.00;0.08;40.98;0.00;0.00;0.62;;;;;26.70;61.00;;;;;;2255376;61;941;-70
2021/06/21 06:37:17;0.00;0.00;0.62;0.00;0.00;0.62;;;;;26.70;61.00;;;;;;2255076;61;832;-70
2021/06/21 06:39:43;0.00;0.00;0.62;0.00;0.00;0.62;;;;;26.70;60.90;;;;;;2251408;61;1033;-67
2021/06/21 06:42:08;0.00;0.00;0.62;0.00;0.00;0.62;;;;;26.70;60.90;;;;;;2255367;61;1188;-69
2021/06/21 06:44:36;31370.00;0.10;54.95;0.00;0.00;0.62;;;;;26.70;60.90;;;;;;2255113;61;1265;-69
2021/06/21 06:47:01;0.00;0.00;0.62;0.00;0.00;0.62;;;;;26.70;60.90;;;;;;2255289;61;2004;-69
2021/06/21 06:49:27;0.00;0.00;0.62;0.00;0.00;0.62;;;;;26.70;60.90;;;;;;2251232;61;1609;-69
2021/06/21 06:51:53;22729.00;0.08;40.00;0.00;0.00;0.62;;;;;26.70;60.90;;;;;;2255153;61;1013;-72
2021/06/21 06:54:22;0.00;0.00;0.62;0.00;0.00;0.62;;;;;26.70;60.90;;;;;;2255360;61;920;-72
2021/06/21 06:56:58;215047.00;0.72;371.82;0.00;0.00;0.62;;;;;26.70;60.90;;;;;;2255081;61;1206;-73
2021/06/21 06:59:33;54520.00;0.18;95.00;0.00;0.00;0.62;;;;;26.70;60.90;;;;;;2251515;61;892;-68
2021/06/21 07:02:00;0.00;0.00;0.62;0.00;0.00;0.62;;;;;26.70;60.90;;;;;;2251540;61;1061;-70
2021/06/21 07:04:26;33728.00;0.11;59.04;0.00;0.00;0.62;;;;;26.70;60.90;;;;;;2255256;61;927;-72
2021/06/21 07:06:51;0.00;0.00;0.62;0.00;0.00;0.62;;;;;26.70;60.90;;;;;;2251431;61;920;-68
2021/06/21 07:09:17;32308.00;0.11;56.58;0.00;0.00;0.62;;;;;26.70;60.90;;;;;;2255006;61;1955;-72
2021/06/21 07:11:43;39837.00;0.13;69.61;0.00;0.00;0.62;;;;;26.70;60.70;;;;;;2255088;61;931;-68
2021/06/21 07:14:08;0.00;0.00;0.62;0.00;0.00;0.62;;;;;26.70;60.70;;;;;;2255420;61;905;-74
2021/06/21 07:16:34;0.00;0.00;0.62;0.00;0.00;0.62;;;;;26.70;60.70;;;;;;2255073;61;1146;-70
2021/06/21 07:19:00;0.00;0.00;0.62;0.00;0.00;0.62;;;;;26.70;60.70;;;;;;2255434;61;1013;-68
2021/06/21 07:21:26;46948.00;0.16;81.91;0.00;0.00;0.62;;;;;26.80;60.90;;;;;;2255151;61;925;-67
2021/06/21 07:23:52;37737.00;0.13;65.97;0.00;0.00;0.62;;;;;26.80;60.70;;;;;;2255162;61;852;-67
2021/06/21 07:26:17;126745.00;0.42;219.72;0.00;0.00;0.62;;;;;26.80;60.70;;;;;;2255210;61;1024;-72
2021/06/21 07:28:43;232553.00;0.78;401.94;62609.00;0.21;108.99;;;;;26.80;60.70;;;;;;2254962;61;1941;-69
2021/06/21 07:31:09;114764.00;0.38;199.05;0.00;0.00;0.62;;;;;26.80;60.70;;;;;;2254786;61;959;-69
2021/06/21 07:33:36;0.00;0.00;0.62;0.00;0.00;0.62;;;;;26.80;60.70;;;;;;2255064;61;1009;-70
2021/06/21 07:36:02;24035.00;0.08;42.26;0.00;0.00;0.62;;;;;26.80;60.60;;;;;;2251257;61;920;-67
2021/06/21 07:38:27;0.00;0.00;0.62;0.00;0.00;0.62;;;;;26.80;60.60;;;;;;2255174;61;1054;-72
2021/06/21 07:40:53;0.00;0.00;0.62;0.00;0.00;0.62;;;;;26.80;60.70;;;;;;2255112;61;1009;-69
2021/06/21 07:43:18;0.00;0.00;0.62;0.00;0.00;0.62;;;;;26.80;60.60;;;;;;2255253;61;954;-76
2021/06/21 07:45:45;91751.00;0.31;159.33;0.00;0.00;0.62;;;;;26.80;60.60;;;;;;2255091;61;990;-70
2021/06/21 07:48:11;0.00;0.00;0.62;0.00;0.00;0.62;;;;;26.80;60.50;;;;;;2255015;61;2030;-70
2021/06/21 07:50:37;0.00;0.00;0.62;0.00;0.00;0.62;;;;;26.80;60.60;;;;;;2255047;61;921;-69
2021/06/21 07:53:03;34027.00;0.11;59.55;0.00;0.00;0.62;;;;;26.80;60.70;;;;;;2255173;61;865;-68
2021/06/21 07:55:29;0.00;0.00;0.62;0.00;0.00;0.62;;;;;26.80;60.60;;;;;;2251180;61;1177;-73
2021/06/21 07:57:55;0.00;0.00;0.62;0.00;0.00;0.62;;;;;26.90;60.70;;;;;;2251132;61;1059;-68
2021/06/21 08:00:23;0.00;0.00;0.62;0.00;0.00;0.62;;;;;26.90;60.70;;;;;;2254924;61;1017;-71
2021/06/21 08:02:50;0.00;0.00;0.62;0.00;0.00;0.62;;;;;26.80;60.70;;;;;;2255443;61;1059;-73
2021/06/21 08:05:16;0.00;0.00;0.62;0.00;0.00;0.62;;;;;26.80;60.90;;;;;;2255174;61;1185;-68
2021/06/21 08:07:42;0.00;0.00;0.62;0.00;0.00;0.62;;;;;26.80;61.00;;;;;;2255055;61;2014;-68
2021/06/21 08:10:08;0.00;0.00;0.62;0.00;0.00;0.62;;;;;26.80;61.00;;;;;;2255013;61;1008;-73
2021/06/21 08:12:34;42094.00;0.14;73.51;0.00;0.00;0.62;;;;;26.80;61.00;;;;;;2254945;61;1152;-68
2021/06/21 08:14:59;0.00;0.00;0.62;0.00;0.00;0.62;;;;;26.80;61.00;;;;;;2255289;61;1052;-68
2021/06/21 08:17:25;0.00;0.00;0.62;0.00;0.00;0.62;;;;;26.80;61.00;;;;;;2255492;61;1316;-67
2021/06/21 08:19:50;0.00;0.00;0.62;0.00;0.00;0.62;;;;;26.80;61.10;;;;;;2255933;61;875;-71
2021/06/21 08:22:21;10213.00;0.03;18.32;0.00;0.00;0.62;;;;;26.80;61.10;;;;;;2255666;61;903;-79
2021/06/21 08:24:50;49248.00;0.16;85.89;0.00;0.00;0.62;;;;;26.80;61.10;;;;;;2256037;61;929;-68
2021/06/21 08:27:16;39873.00;0.13;69.67;0.00;0.00;0.62;;;;;26.80;61.10;;;;;;2255666;61;1951;-70
2021/06/21 08:29:42;0.00;0.00;0.62;0.00;0.00;0.62;;;;;26.80;61.10;;;;;;2251966;61;982;-68
2021/06/21 08:32:07;22269.00;0.07;39.20;0.00;0.00;0.62;;;;;26.80;61.10;;;;;;2251781;61;1002;-67
2021/06/21 08:34:33;73211.00;0.24;127.31;0.00;0.00;0.62;;;;;26.80;61.10;;;;;;2255912;61;950;-72
2021/06/21 08:36:58;0.00;0.00;0.62;0.00;0.00;0.62;;;;;26.80;61.10;;;;;;2255863;61;1101;-74
2021/06/21 08:39:24;0.00;0.00;0.62;0.00;0.00;0.62;;;;;26.80;61.10;;;;;;2255936;61;923;-68
2021/06/21 08:41:50;0.00;0.00;0.62;0.00;0.00;0.62;;;;;26.70;61.10;;;;;;2252140;61;1045;-71
2021/06/21 08:44:15;0.00;0.00;0.62;0.00;0.00;0.62;;;;;26.80;61.10;;;;;;2252135;61;984;-69
2021/06/21 08:46:41;0.00;0.00;0.62;0.00;0.00;0.62;;;;;26.80;61.10;;;;;;2255712;61;963;-69
2021/06/21 08:49:07;0.00;0.00;0.62;0.00;0.00;0.62;;;;;26.70;61.10;;;;;;2255532;61;2020;-68
2021/06/21 08:51:36;224884.00;0.75;388.75;0.00;0.00;0.62;;;;;26.70;61.10;;;;;;2255643;61;935;-70
2021/06/21 08:54:02;0.00;0.00;0.62;0.00;0.00;0.62;;;;;26.80;61.10;;;;;;2255985;61;821;-70
2021/06/21 08:56:27;0.00;0.00;0.62;0.00;0.00;0.62;;;;;26.70;61.00;;;;;;2251924;61;887;-68
2021/06/21 08:58:53;0.00;0.00;0.62;0.00;0.00;0.62;;;;;26.80;61.00;;;;;;2255816;61;906;-71
2021/06/21 09:01:19;362949.00;1.21;626.12;168842.00;0.56;292.27;;;;;26.70;61.00;;;;;;2255578;61;1030;-75
2021/06/21 09:03:44;17279.00;0.06;30.56;0.00;0.00;0.62;;;;;26.80;61.00;;;;;;2255667;61;1024;-69
2021/06/21 09:06:22;312353.00;1.04;539.15;236127.00;0.79;408.09;;;;;26.80;61.00;;;;;;2251967;61;1145;-72
2021/06/21 09:08:58;0.00;0.00;0.62;0.00;0.00;0.62;;;;;26.80;61.00;;;;;;2255753;61;2020;-73
2021/06/21 09:11:45;0.00;0.00;0.62;0.00;0.00;0.62;;;;;26.80;61.00;;;;;;2255538;61;939;-70
2021/06/21 09:14:28;0.00;0.00;0.62;0.00;0.00;0.62;;;;;26.80;61.00;;;;;;2255603;61;1014;-68
2021/06/21 09:16:58;0.00;0.00;0.62;0.00;0.00;0.62;;;;;26.80;61.00;;;;;;2255753;61;956;-77
2021/06/21 09:19:24;17229.00;0.06;30.47;0.00;0.00;0.62;;;;;26.80;60.90;;;;;;2251781;61;911;-71
2021/06/21 09:21:49;30404.00;0.10;53.28;0.00;0.00;0.62;;;;;26.80;60.90;;;;;;2251971;61;1018;-73
2021/06/21 09:24:16;0.00;0.00;0.62;0.00;0.00;0.62;;;;;26.80;61.00;;;;;;2255632;61;828;-78
2021/06/21 09:26:42;83924.00;0.28;145.81;0.00;0.00;0.62;;;;;26.80;60.90;;;;;;2255913;61;1012;-70
2021/06/21 09:29:07;0.00;0.00;0.62;0.00;0.00;0.62;;;;;26.80;60.90;;;;;;2255627;61;1952;-70
2021/06/21 09:31:56;0.00;0.00;0.62;0.00;0.00;0.62;;;;;26.80;60.90;;;;;;2251932;61;1035;-69
2021/06/21 09:34:23;0.00;0.00;0.62;0.00;0.00;0.62;;;;;26.80;60.90;;;;;;2255840;61;1066;-72
2021/06/21 09:36:48;0.00;0.00;0.62;0.00;0.00;0.62;;;;;26.80;60.90;;;;;;2251882;61;973;-72
2021/06/21 09:39:27;33659.00;0.11;58.92;0.00;0.00;0.62;;;;;26.80;60.90;;;;;;2251626;61;933;-71
2021/06/21 09:42:15;1780.00;0.01;3.71;0.00;0.00;0.62;;;;;26.80;60.90;;;;;;2251909;61;843;-72
2021/06/21 09:44:47;55415.00;0.18;96.55;0.00;0.00;0.62;;;;;26.80;60.90;;;;;;2255510;61;1026;-67
2021/06/21 09:47:14;0.00;0.00;0.62;0.00;0.00;0.62;;;;;26.80;60.90;;;;;;2255498;61;1947;-67
2021/06/21 09:50:17;0.00;0.00;0.62;0.00;0.00;0.62;;;;;26.80;60.90;;;;;;2255618;61;907;-69
2021/06/21 09:52:59;0.00;0.00;0.62;0.00;0.00;0.62;;;;;26.80;60.70;;;;;;2255759;61;876;-68
2021/06/21 09:55:29;0.00;0.00;0.62;0.00;0.00;0.62;;;;;26.80;60.70;;;;;;2255096;61;1117;-68
2021/06/21 09:58:19;0.00;0.00;0.62;0.00;0.00;0.62;;;;;26.80;60.70;;;;;;2251626;61;926;-80
2021/06/21 10:00:52;0.00;0.00;0.62;0.00;0.00;0.62;;;;;26.80;60.70;;;;;;2251686;61;995;-72
2021/06/21 10:03:21;0.00;0.00;0.62;0.00;0.00;0.62;;;;;26.80;60.70;;;;;;2255439;61;996;-71
2021/06/21 10:06:08;0.00;0.00;0.62;0.00;0.00;0.62;;;;;26.80;60.70;;;;;;2255460;61;1017;-71
2021/06/21 10:08:50;0.00;0.00;0.62;0.00;0.00;0.62;;;;;26.80;60.60;;;;;;2255539;61;1940;-69
2021/06/21 10:11:48;0.00;0.00;0.62;0.00;0.00;0.62;;;;;26.80;60.70;;;;;;2255597;61;852;-73
2021/06/21 10:14:18;0.00;0.00;0.62;0.00;0.00;0.62;;;;;26.80;60.60;;;;;;2244673;61;1578;-68
2021/06/21 10:16:46;0.00;0.00;0.62;0.00;0.00;0.62;;;;;26.80;60.70;;;;;;2251807;61;923;-77
2021/06/21 10:19:12;0.00;0.00;0.62;0.00;0.00;0.62;;;;;26.80;60.60;;;;;;2255832;61;965;-67
2021/06/21 10:21:39;10425.00;0.03;18.69;0.00;0.00;0.62;;;;;26.80;60.60;;;;;;2255447;61;978;-70
2021/06/21 10:24:05;0.00;0.00;0.62;0.00;0.00;0.62;;;;;26.80;60.60;;;;;;2248254;61;985;-71
2021/06/21 10:26:31;0.00;0.00;0.62;0.00;0.00;0.62;;;;;26.80;60.60;;;;;;2255582;61;847;-76
2021/06/21 10:28:56;0.00;0.00;0.62;0.00;0.00;0.62;;;;;26.80;60.60;;;;;;2255500;61;2026;-67
2021/06/21 10:31:26;0.00;0.00;0.62;0.00;0.00;0.62;;;;;26.80;60.60;;;;;;2248308;61;1579;-69
2021/06/21 10:33:54;12807.00;0.04;22.81;0.00;0.00;0.62;;;;;26.80;60.60;;;;;;2251971;61;930;-70
2021/06/21 10:36:20;0.00;0.00;0.62;0.00;0.00;0.62;;;;;26.80;60.60;;;;;;2255255;61;883;-71